Latest Weather Observations for Cape Grim

IDT60801

Issued at 2:35 pm EST Friday 20 September 2013 (issued every 30 minutes, with the page automatically refreshed every 10 minutes)

About weather observations | Map of weather stations | Latest weather observations for TAS | Other Formats
Station Details ID: 091245 Name: CAPE GRIM BAPS (COMPARISON) Lat: -40.68 Lon: 144.69 Height: 94.0 m
Data from the previous 72 hours. | See also: Recent months at Cape Grim
Date/Time
EST
Temp
°C
App
Temp
°C
Dew
Point
Rel
Hum
%
Delta-T
°C
Wind Press
QNH
hPa
Press
MSL
hPa
Rain
since 9 am
mm
Dir
 
Spd
km/h
Gust
km/h
Spd
kts
Gust
kts
20/02:30pm 13.0 3.0 9.5 79 1.8 WSW 52 63 28 34 1006.9 - 0.2
20/02:00pm 13.4 2.9 8.9 74 2.3 WSW 54 59 29 32 1006.6 - 0.2
20/01:30pm 13.4 4.1 9.1 75 2.2 WSW 48 54 26 29 1006.4 - 0.2
20/01:00pm 13.4 5.1 9.5 77 2.0 WSW 43 52 23 28 1006.2 - 0.2
20/12:30pm 13.1 4.6 9.2 77 2.0 WSW 44 50 24 27 1005.9 - 0.2
20/12:00pm 13.9 6.6 10.1 78 2.0 WSW 39 46 21 25 1005.7 1005.7 0.2
20/11:30am 14.2 7.7 10.4 78 2.0 WSW 35 44 19 24 1005.7 - 0.2
20/11:00am 13.0 9.2 11.1 88 1.0 WSW 22 28 12 15 1005.6 - 0.2
20/10:30am 11.5 4.9 10.1 91 0.7 WSW 35 44 19 24 1005.3 - 0.2
20/10:00am 14.0 11.8 10.8 81 1.7 W 13 19 7 10 1005.0 - 0.0
20/09:30am 14.1 13.0 10.7 80 1.8 WNW 7 11 4 6 1004.6 - 0.0
20/09:00am 13.9 12.8 10.5 80 1.8 NNW 7 9 4 5 1004.3 1004.3 2.4
20/08:30am 12.6 11.2 9.7 82 1.5 N 7 9 4 5 1003.9 - 2.4
20/08:00am 12.0 10.7 9.9 87 1.1 NE 7 11 4 6 1003.5 - 2.4
20/07:30am 10.8 9.3 9.2 90 0.8 NE 7 9 4 5 1003.1 - 2.4
20/07:00am 9.6 8.0 8.2 91 0.7 E 6 7 3 4 1003.0 - 2.4
20/06:30am 9.3 6.4 8.1 92 0.6 E 13 13 7 7 1002.5 - 2.4
20/06:00am 9.1 6.1 7.9 92 0.6 E 13 15 7 8 1002.3 1002.3 2.4
20/05:30am 9.0 6.1 8.0 93 0.5 E 13 17 7 9 1002.0 - 2.4
20/05:00am 9.8 8.7 8.6 92 0.6 E 4 7 2 4 1001.8 - 2.4
20/04:30am 9.6 7.2 8.6 93 0.5 NE 11 13 6 7 1001.7 - 1.6
20/04:00am 10.0 8.1 9.0 93 0.5 ENE 9 11 5 6 1001.6 - 1.4
20/03:30am 9.9 7.1 8.7 92 0.6 ENE 13 13 7 7 1001.5 - 1.4
20/03:00am 10.0 7.6 8.8 92 0.6 E 11 11 6 6 1001.7 1001.7 1.4
20/02:30am 9.9 7.8 8.3 90 0.8 E 9 11 5 6 1001.9 - 1.4
20/02:00am 9.8 8.1 7.7 87 1.0 NE 6 7 3 4 1002.1 - 1.4
20/01:30am 9.9 7.7 7.8 87 1.0 N 9 11 5 6 1002.3 - 1.4
20/01:00am 10.1 7.8 7.6 84 1.2 NW 9 13 5 7 1002.7 - 1.4
20/12:30am 9.8 7.9 7.5 85 1.1 NW 7 13 4 7 1002.8 - 1.4
20/12:00am 10.3 8.1 7.8 84 1.2 W 9 13 5 7 1002.7 1002.7 1.4
 
Date/Time
EST
Temp
°C
App
Temp
°C
Dew
Point
Rel
Hum
%
Delta-T
°C
Wind Press
QNH
hPa
Press
MSL
hPa
Rain
since 9 am
mm
Dir
 
Spd
km/h
Gust
km/h
Spd
kts
Gust
kts
19/11:30pm 10.2 7.2 7.9 86 1.1 W 13 17 7 9 1002.9 - 1.4
19/11:00pm 10.5 6.8 7.8 83 1.3 WSW 17 20 9 11 1003.1 - 1.4
19/10:30pm 10.6 5.9 7.7 82 1.4 WSW 22 26 12 14 1003.3 - 1.4
19/10:00pm 10.6 5.6 8.2 85 1.2 WSW 24 28 13 15 1003.4 - 1.4
19/09:30pm 10.7 4.6 8.3 85 1.2 WSW 30 35 16 19 1003.6 - 1.4
19/09:00pm 11.1 3.6 7.8 80 1.6 W 37 46 20 25 1003.7 1003.7 1.4
19/08:30pm 10.9 4.9 8.7 86 1.1 W 30 39 16 21 1003.6 - 1.4
19/08:00pm 10.8 2.4 9.0 89 0.9 WSW 43 50 23 27 1003.4 - 1.4
19/07:30pm 10.6 3.3 8.6 87 1.0 W 37 46 20 25 1003.3 - 1.4
19/07:00pm 11.1 1.6 8.5 84 1.3 W 48 61 26 33 1003.0 - 0.6
19/06:30pm 11.2 2.4 7.9 80 1.6 W 44 57 24 31 1002.6 - 0.6
19/06:00pm 11.5 1.4 7.6 77 1.9 WSW 50 57 27 31 1002.4 1002.4 0.6
19/05:30pm 11.5 0.1 6.7 72 2.3 WSW 56 61 30 33 1002.0 - 0.6
19/05:00pm 11.7 0.1 6.0 68 2.7 WSW 56 65 30 35 1001.5 - 0.6
19/04:30pm 11.6 0.5 6.4 70 2.5 WSW 54 65 29 35 1001.3 - 0.6
19/04:00pm 12.4 0.9 6.3 66 2.9 WSW 56 63 30 34 1001.3 - 0.6
19/03:30pm 11.5 -0.2 5.5 66 2.8 WSW 56 63 30 34 1001.2 - 0.6
19/03:00pm 11.2 0.0 6.1 71 2.4 WSW 54 67 29 36 1001.2 1001.2 0.6
19/02:30pm 11.0 0.0 6.6 74 2.1 WSW 54 65 29 35 1000.8 - 0.6
19/02:00pm 11.1 -0.4 6.9 75 2.0 WSW 57 69 31 37 1000.2 - 0.6
19/01:30pm 10.8 -1.2 8.4 85 1.2 WSW 61 69 33 37 1001.4 - 0.6
19/01:00pm 11.4 0.4 9.2 86 1.1 WSW 57 69 31 37 999.9 - 0.6
19/12:30pm 11.6 0.6 9.0 84 1.3 WSW 57 69 31 37 1000.2 - 0.6
19/12:00pm 11.7 1.1 9.8 88 1.0 WSW 56 63 30 34 1000.6 1000.6 0.6
19/11:30am 11.8 1.1 10.3 90 0.8 WSW 57 65 31 35 1000.7 - 0.6
19/11:00am 11.7 1.3 10.7 94 0.5 WSW 56 63 30 34 1001.0 - 0.6
19/10:30am 11.4 0.1 10.8 96 0.3 WSW 61 76 33 41 1000.1 - 0.6
19/10:00am 11.3 0.9 10.7 96 0.3 WSW 56 65 30 35 999.3 - 0.0
19/09:30am 11.5 0.9 10.7 95 0.4 SW 57 67 31 36 1000.0 - 0.0
19/09:00am 11.8 1.4 10.7 93 0.6 WSW 56 63 30 34 999.2 999.3 5.8
19/08:30am 11.5 2.2 10.7 95 0.4 SW 50 56 27 30 1000.2 - 5.8
19/08:00am 11.7 2.8 10.5 92 0.6 SW 48 57 26 31 999.6 - 5.8
19/07:30am 11.3 2.8 10.7 96 0.3 SW 46 56 25 30 999.0 - 5.8
19/07:00am 11.4 3.5 10.8 96 0.3 SW 43 46 23 25 999.4 - 5.8
19/06:30am 11.3 3.8 10.9 97 0.2 SW 41 48 22 26 998.6 - 5.6
19/06:00am 11.5 3.6 10.9 96 0.3 SW 43 48 23 26 998.7 998.8 5.6
19/05:30am 11.4 3.4 11.0 97 0.2 SW 44 52 24 28 998.2 - 5.6
19/05:00am 11.4 2.6 10.8 96 0.3 SW 48 56 26 30 997.5 - 5.6
19/04:30am 11.6 2.8 11.0 96 0.3 SW 48 54 26 29 997.5 - 5.2
19/04:00am 11.6 2.4 11.0 96 0.3 SW 50 59 27 32 997.1 - 4.6
19/03:30am 11.6 2.8 11.0 96 0.3 SW 48 54 26 29 997.2 - 4.0
19/03:00am 11.9 4.1 11.3 96 0.3 SW 43 50 23 27 997.1 997.1 3.6
19/02:30am 11.9 4.1 11.3 96 0.3 WSW 43 52 23 28 996.8 - 3.2
19/02:00am 11.8 2.7 11.2 96 0.3 WSW 50 61 27 33 996.7 - 3.0
19/01:30am 11.9 2.8 11.3 96 0.3 WSW 50 56 27 30 996.9 - 2.8
19/01:00am 11.9 3.6 11.3 96 0.3 WSW 46 56 25 30 996.6 - 2.4
19/12:30am 12.0 2.9 11.2 95 0.4 WSW 50 56 27 30 996.5 - 2.4
19/12:00am 12.0 4.3 11.4 96 0.3 WSW 43 50 23 27 996.5 996.5 2.4
 
Date/Time
EST
Temp
°C
App
Temp
°C
Dew
Point
Rel
Hum
%
Delta-T
°C
Wind Press
QNH
hPa
Press
MSL
hPa
Rain
since 9 am
mm
Dir
 
Spd
km/h
Gust
km/h
Spd
kts
Gust
kts
18/11:30pm 12.0 4.3 11.4 96 0.3 WSW 43 54 23 29 996.6 - 2.2
18/11:00pm 12.0 5.0 11.4 96 0.3 WSW 39 44 21 24 996.7 - 1.6
18/10:30pm 12.0 5.4 11.2 95 0.4 W 37 46 20 25 997.1 - 1.4
18/10:00pm 11.8 5.5 11.0 95 0.4 W 35 46 19 25 996.5 - 1.2
18/09:30pm 11.8 5.4 10.8 94 0.5 WSW 35 39 19 21 997.1 - 1.2
18/09:00pm 12.2 7.7 11.5 95 0.4 WSW 26 30 14 16 996.6 996.6 1.0
18/08:30pm 12.0 7.1 11.4 96 0.3 WSW 28 30 15 16 995.9 - 1.0
18/08:00pm 12.1 7.2 11.3 95 0.4 SW 28 32 15 17 995.7 - 1.0
18/07:30pm 12.0 7.9 11.4 96 0.3 SW 24 28 13 15 995.4 - 1.0
18/07:00pm 12.1 6.8 11.3 95 0.4 SW 30 32 16 17 995.1 - 1.0
18/06:30pm 12.1 7.2 11.3 95 0.4 WSW 28 32 15 17 995.3 - 1.0
18/06:00pm 12.1 8.0 11.3 95 0.4 WSW 24 26 13 14 995.2 995.2 1.0
18/05:30pm 12.0 8.6 11.2 95 0.4 W 20 26 11 14 995.2 - 1.0
18/05:00pm 12.1 8.9 11.3 95 0.4 W 19 30 10 16 995.2 - 1.0
18/04:30pm 12.4 8.8 11.7 95 0.4 W 22 35 12 19 994.3 - 1.0
18/04:00pm 12.9 11.5 12.2 95 0.4 NW 11 13 6 7 996.3 - 1.0
18/03:30pm 12.5 10.6 11.8 95 0.4 NNW 13 19 7 10 995.8 - 1.0
18/03:00pm 12.4 10.9 11.8 96 0.3 NNW 11 13 6 7 995.8 995.8 0.8
18/02:30pm 12.6 11.0 11.7 94 0.5 N 11 17 6 9 995.9 - 0.8
18/02:00pm 12.8 11.4 12.1 95 0.4 NW 11 15 6 8 995.9 - 0.6
18/01:30pm 13.5 11.8 11.3 86 1.2 NNW 11 17 6 9 996.0 - 0.0
18/01:00pm 13.7 12.5 11.7 88 1.1 NE 9 13 5 7 996.8 - 0.0
18/12:30pm 13.4 11.3 11.3 87 1.1 NE 13 17 7 9 997.0 - 0.0
18/12:00pm 13.1 11.1 11.4 89 0.9 NE 13 17 7 9 997.3 997.3 0.0
18/11:30am 13.0 11.2 10.9 87 1.1 NE 11 17 6 9 997.4 - 0.0
18/11:00am 13.1 10.2 11.0 87 1.1 ENE 17 20 9 11 997.6 - 0.0
18/10:30am 13.3 10.1 11.2 87 1.1 ENE 19 22 10 12 997.9 - 0.0
18/10:00am 12.5 9.6 11.0 90 0.8 ENE 17 20 9 11 998.1 - 0.0
18/09:30am 12.0 8.6 10.7 92 0.7 ENE 19 24 10 13 998.3 - 0.0
18/09:00am 11.5 7.8 10.3 92 0.6 E 20 24 11 13 998.4 998.5 7.6
18/08:30am 10.9 6.7 9.9 93 0.5 E 22 26 12 14 998.7 - 7.6
18/08:00am 10.7 6.5 9.7 93 0.5 E 22 26 12 14 998.8 - 7.6
18/07:30am 10.5 6.3 9.7 95 0.4 ESE 22 28 12 15 998.9 - 7.6
18/07:00am 10.4 6.5 9.6 95 0.4 ESE 20 22 11 12 999.2 - 7.6
18/06:30am 10.4 6.7 9.6 95 0.4 ESE 19 24 10 13 999.6 - 7.6
18/06:00am 10.3 6.5 9.7 96 0.3 ESE 20 24 11 13 999.6 999.7 7.6
18/05:30am 10.4 5.4 9.6 95 0.4 E 26 32 14 17 999.4 - 7.6
18/05:00am 10.4 4.7 9.8 96 0.3 E 30 35 16 19 999.5 - 7.6
18/04:30am 10.4 4.7 9.8 96 0.3 E 30 35 16 19 999.6 - 7.6
18/04:00am 10.4 3.7 9.8 96 0.3 E 35 43 19 23 999.6 - 7.4
18/03:30am 10.4 3.7 9.8 96 0.3 E 35 46 19 25 999.9 - 7.4
18/03:00am 10.4 2.6 9.8 96 0.3 E 41 50 22 27 1000.1 1000.2 7.4
18/02:30am 10.5 2.7 9.9 96 0.3 E 41 50 22 27 1000.6 - 7.4
18/02:00am 10.6 2.9 10.0 96 0.3 E 41 52 22 28 1001.3 - 7.4
18/01:30am 10.9 3.2 10.3 96 0.3 E 41 50 22 27 1001.8 - 7.2
18/01:00am 11.0 2.9 10.6 97 0.2 E 44 52 24 28 1002.0 - 6.8
18/12:30am 11.1 3.6 10.7 97 0.2 E 41 54 22 29 1003.1 - 6.6
18/12:00am 11.1 3.6 10.7 97 0.2 E 41 50 22 27 1003.0 1003.0 6.2
 
Date/Time
EST
Temp
°C
App
Temp
°C
Dew
Point
Rel
Hum
%
Delta-T
°C
Wind Press
QNH
hPa
Press
MSL
hPa
Rain
since 9 am
mm
Dir
 
Spd
km/h
Gust
km/h
Spd
kts
Gust
kts
17/11:30pm 11.0 3.4 10.6 97 0.2 E 41 50 22 27 1003.3 - 5.8
17/11:00pm 11.0 3.4 10.6 97 0.2 E 41 54 22 29 1003.7 - 5.8
17/10:30pm 11.0 3.0 10.4 96 0.3 E 43 54 23 29 1003.8 - 5.8
17/10:00pm 11.1 2.9 10.5 96 0.3 E 44 56 24 30 1004.2 - 5.6
17/09:30pm 11.1 3.6 10.7 97 0.2 E 41 52 22 28 1004.6 - 5.6
17/09:00pm 11.1 3.1 10.5 96 0.3 E 43 54 23 29 1005.4 1005.4 5.2
17/08:30pm 11.1 3.1 10.5 96 0.3 E 43 59 23 32 1004.8 - 4.8
17/08:00pm 11.1 2.9 10.5 96 0.3 E 44 59 24 32 1004.9 - 4.4
17/07:30pm 11.1 2.2 10.5 96 0.3 E 48 63 26 34 1004.7 - 4.2
17/07:00pm 11.3 2.0 10.5 95 0.4 E 50 63 27 34 1004.4 - 4.0
17/06:30pm 11.3 2.0 10.7 96 0.3 E 50 65 27 35 1004.5 - 3.8
17/06:00pm 11.4 1.7 10.6 95 0.4 E 52 63 28 34 1004.4 1004.4 3.4
17/05:30pm 11.5 2.6 10.7 95 0.4 E 48 65 26 35 1004.4 - 3.0
17/05:00pm 11.5 1.5 10.7 95 0.4 E 54 69 29 37 1004.4 - 2.8
17/04:30pm 11.5 1.5 10.7 95 0.4 E 54 70 29 38 1004.3 - 2.6
17/04:00pm 11.6 1.6 10.8 95 0.4 E 54 69 29 37 1004.3 - 2.4
17/03:30pm 11.7 2.4 10.7 94 0.5 E 50 61 27 33 1004.7 - 2.2
17/03:00pm 11.6 1.9 10.6 94 0.5 E 52 69 28 37 1004.6 1004.6 2.0

Other Formats:

Comma delimited format used in spreadsheet applications
http://www.bom.gov.au/fwo/IDT60801/IDT60801.94954.axf

JavaScript Object Notation format (JSON) in row-major order
http://www.bom.gov.au/fwo/IDT60801/IDT60801.94954.json